CCA201 VNKT-ZULS
Flight info
| Callsign | CCA201 |
|---|---|
| Flight time | 0h 57m |
| Altitude | 39100 |
| Route | IGRIS1C KIMTI B345 IKUBI IKU28A |
| Aircraft | A320/M-SDE3FGHIRWY/LB1 |
Departure
| Time | 2026-04-20 04:35 |
|---|---|
| Airport | Tribhuvan International Airport (VNKT) |
Arrival
| Time | 2026-04-20 05:32 |
|---|---|
| Airport | Lhasa Gonggar International Airport (ZULS) |
| Time | Latitude | Longitude | Altitude | Speed | Heading |
|---|---|---|---|---|---|
| 2026-04-20 04:15 | 27.69878 | 85.35783 | 4398 ft | 0 kts | 292° |
| 2026-04-20 04:23 | 27.69878 | 85.35785 | 4398 ft | 1 kts | 292° |
| 2026-04-20 04:24 | 27.69872 | 85.35802 | 4398 ft | 3 kts | 292° |
| 2026-04-20 04:24 | 27.69864 | 85.35823 | 4398 ft | 3 kts | 292° |
| 2026-04-20 04:24 | 27.69857 | 85.35841 | 4397 ft | 3 kts | 289° |
| 2026-04-20 04:24 | 27.69854 | 85.35862 | 4397 ft | 3 kts | 259° |
| 2026-04-20 04:25 | 27.69860 | 85.35881 | 4397 ft | 3 kts | 223° |
| 2026-04-20 04:25 | 27.69876 | 85.35894 | 4397 ft | 2 kts | 204° |
| 2026-04-20 04:25 | 27.69884 | 85.35898 | 4397 ft | 1 kts | 202° |
| 2026-04-20 04:25 | 27.69885 | 85.35898 | 4397 ft | 0 kts | 202° |
| 2026-04-20 04:28 | 27.69883 | 85.35897 | 4397 ft | 1 kts | 202° |
| 2026-04-20 04:28 | 27.69870 | 85.35891 | 4397 ft | 3 kts | 202° |
| 2026-04-20 04:28 | 27.69845 | 85.35880 | 4397 ft | 5 kts | 201° |
| 2026-04-20 04:29 | 27.69808 | 85.35863 | 4397 ft | 7 kts | 202° |
| 2026-04-20 04:29 | 27.69759 | 85.35841 | 4397 ft | 9 kts | 202° |
| 2026-04-20 04:29 | 27.69699 | 85.35813 | 4398 ft | 10 kts | 202° |
| 2026-04-20 04:29 | 27.69630 | 85.35782 | 4398 ft | 12 kts | 202° |
| 2026-04-20 04:30 | 27.69552 | 85.35746 | 4398 ft | 13 kts | 202° |
| 2026-04-20 04:30 | 27.69458 | 85.35703 | 4396 ft | 17 kts | 202° |
| 2026-04-20 04:30 | 27.69341 | 85.35651 | 4394 ft | 19 kts | 202° |
| 2026-04-20 04:30 | 27.69213 | 85.35592 | 4391 ft | 21 kts | 202° |
| 2026-04-20 04:31 | 27.69091 | 85.35560 | 4388 ft | 15 kts | 150° |
| 2026-04-20 04:31 | 27.69015 | 85.35616 | 4391 ft | 13 kts | 197° |
| 2026-04-20 04:31 | 27.68927 | 85.35580 | 4392 ft | 14 kts | 204° |
| 2026-04-20 04:31 | 27.68832 | 85.35537 | 4391 ft | 16 kts | 202° |
| 2026-04-20 04:32 | 27.68720 | 85.35487 | 4390 ft | 18 kts | 202° |
| 2026-04-20 04:32 | 27.68602 | 85.35433 | 4394 ft | 18 kts | 201° |
| 2026-04-20 04:32 | 27.68495 | 85.35384 | 4396 ft | 13 kts | 205° |
| 2026-04-20 04:32 | 27.68432 | 85.35315 | 4396 ft | 10 kts | 199° |
| 2026-04-20 04:33 | 27.68422 | 85.35352 | 4397 ft | 7 kts | 22° |
| 2026-04-20 04:33 | 27.68445 | 85.35362 | 4397 ft | 0 kts | 22° |
| 2026-04-20 04:34 | 27.68455 | 85.35366 | 4396 ft | 3 kts | 22° |
| 2026-04-20 04:34 | 27.68608 | 85.35435 | 4394 ft | 65 kts | 22° |
| 2026-04-20 04:34 | 27.69294 | 85.35747 | 4394 ft | 143 kts | 21° |
| 2026-04-20 04:34 | 27.70365 | 85.36233 | 4738 ft | 175 kts | 22° |
| 2026-04-20 04:35 | 27.71507 | 85.36822 | 5533 ft | 186 kts | 26° |
| 2026-04-20 04:35 | 27.72617 | 85.37507 | 6285 ft | 176 kts | 31° |
| 2026-04-20 04:35 | 27.73463 | 85.38391 | 6967 ft | 157 kts | 58° |
| 2026-04-20 04:35 | 27.73849 | 85.39498 | 7446 ft | 148 kts | 84° |
| 2026-04-20 04:36 | 27.73361 | 85.41774 | 7949 ft | 160 kts | 130° |
| 2026-04-20 04:36 | 27.72621 | 85.42587 | 8439 ft | 145 kts | 145° |
| 2026-04-20 04:36 | 27.71772 | 85.43224 | 8702 ft | 149 kts | 149° |
| 2026-04-20 04:37 | 27.70875 | 85.43881 | 8984 ft | 158 kts | 146° |
| 2026-04-20 04:37 | 27.69982 | 85.44670 | 9280 ft | 168 kts | 140° |
| 2026-04-20 04:37 | 27.69090 | 85.45572 | 9590 ft | 176 kts | 139° |
| 2026-04-20 04:37 | 27.68180 | 85.46568 | 9804 ft | 189 kts | 136° |
| 2026-04-20 04:38 | 27.67206 | 85.47664 | 9975 ft | 208 kts | 138° |
| 2026-04-20 04:38 | 27.66135 | 85.48902 | 10133 ft | 232 kts | 131° |
| 2026-04-20 04:38 | 27.65178 | 85.50472 | 10340 ft | 252 kts | 118° |
| 2026-04-20 04:38 | 27.64418 | 85.52351 | 10597 ft | 274 kts | 114° |
| 2026-04-20 04:39 | 27.63583 | 85.54348 | 11068 ft | 288 kts | 118° |
| 2026-04-20 04:39 | 27.62621 | 85.56368 | 11649 ft | 297 kts | 120° |
| 2026-04-20 04:39 | 27.61707 | 85.58558 | 11925 ft | 321 kts | 111° |
| 2026-04-20 04:39 | 27.60952 | 85.60986 | 12101 ft | 343 kts | 108° |
| 2026-04-20 04:40 | 27.60250 | 85.63643 | 12366 ft | 362 kts | 105° |
| 2026-04-20 04:40 | 27.59588 | 85.66415 | 12923 ft | 369 kts | 104° |
| 2026-04-20 04:40 | 27.58877 | 85.69220 | 13517 ft | 375 kts | 109° |
| 2026-04-20 04:40 | 27.57864 | 85.71952 | 14111 ft | 380 kts | 116° |
| 2026-04-20 04:41 | 27.56715 | 85.74658 | 14694 ft | 385 kts | 117° |
| 2026-04-20 04:41 | 27.55522 | 85.77378 | 15259 ft | 390 kts | 117° |
| 2026-04-20 04:41 | 27.54297 | 85.80122 | 15842 ft | 394 kts | 118° |
| 2026-04-20 04:41 | 27.53050 | 85.82901 | 16386 ft | 399 kts | 117° |
| 2026-04-20 04:42 | 27.51968 | 85.85796 | 16972 ft | 405 kts | 109° |
| 2026-04-20 04:42 | 27.51259 | 85.88888 | 17579 ft | 410 kts | 99° |
| 2026-04-20 04:42 | 27.50966 | 85.92096 | 18165 ft | 414 kts | 91° |
| 2026-04-20 04:42 | 27.50866 | 85.95354 | 18699 ft | 419 kts | 91° |
| 2026-04-20 04:43 | 27.50755 | 85.98608 | 19225 ft | 423 kts | 91° |
| 2026-04-20 04:43 | 27.50635 | 86.01934 | 19752 ft | 427 kts | 91° |
| 2026-04-20 04:43 | 27.50508 | 86.05291 | 20250 ft | 431 kts | 92° |
| 2026-04-20 04:43 | 27.50376 | 86.08684 | 20723 ft | 436 kts | 92° |
| 2026-04-20 04:44 | 27.50241 | 86.12112 | 21215 ft | 440 kts | 92° |
| 2026-04-20 04:44 | 27.50106 | 86.15571 | 21703 ft | 444 kts | 92° |
| 2026-04-20 04:44 | 27.49969 | 86.19062 | 22272 ft | 448 kts | 92° |
| 2026-04-20 04:44 | 27.49832 | 86.22590 | 22823 ft | 453 kts | 93° |
| 2026-04-20 04:45 | 27.49658 | 86.26146 | 23349 ft | 457 kts | 97° |
| 2026-04-20 04:45 | 27.49116 | 86.29682 | 23775 ft | 460 kts | 104° |
| 2026-04-20 04:45 | 27.48429 | 86.33218 | 24245 ft | 464 kts | 104° |
| 2026-04-20 04:45 | 27.47742 | 86.36786 | 24740 ft | 468 kts | 104° |
| 2026-04-20 04:46 | 27.47052 | 86.40385 | 25187 ft | 472 kts | 104° |
| 2026-04-20 04:46 | 27.46357 | 86.44016 | 25597 ft | 476 kts | 104° |
| 2026-04-20 04:46 | 27.45657 | 86.47673 | 26014 ft | 480 kts | 105° |
| 2026-04-20 04:46 | 27.44947 | 86.51368 | 26422 ft | 485 kts | 105° |
| 2026-04-20 04:47 | 27.44229 | 86.55087 | 26852 ft | 488 kts | 105° |
| 2026-04-20 04:47 | 27.43516 | 86.58783 | 27250 ft | 491 kts | 105° |
| 2026-04-20 04:47 | 27.42786 | 86.62553 | 27539 ft | 494 kts | 105° |
| 2026-04-20 04:47 | 27.42054 | 86.66343 | 27969 ft | 497 kts | 105° |
| 2026-04-20 04:48 | 27.41318 | 86.70158 | 28367 ft | 500 kts | 105° |
| 2026-04-20 04:48 | 27.40576 | 86.73998 | 28777 ft | 503 kts | 106° |
| 2026-04-20 04:48 | 27.39825 | 86.77857 | 29135 ft | 507 kts | 106° |
| 2026-04-20 04:48 | 27.39065 | 86.81747 | 29549 ft | 510 kts | 106° |
| 2026-04-20 04:49 | 27.38301 | 86.85653 | 29959 ft | 513 kts | 106° |
| 2026-04-20 04:49 | 27.37530 | 86.89582 | 30264 ft | 516 kts | 106° |
| 2026-04-20 04:49 | 27.36755 | 86.93536 | 30618 ft | 518 kts | 106° |
| 2026-04-20 04:49 | 27.35978 | 86.97501 | 30873 ft | 520 kts | 106° |
| 2026-04-20 04:50 | 27.35193 | 87.01499 | 31187 ft | 525 kts | 107° |
| 2026-04-20 04:50 | 27.34440 | 87.05533 | 31456 ft | 531 kts | 102° |
| 2026-04-20 04:50 | 27.34287 | 87.09712 | 31682 ft | 540 kts | 86° |
| 2026-04-20 04:50 | 27.34997 | 87.13859 | 32005 ft | 542 kts | 71° |
| 2026-04-20 04:51 | 27.36524 | 87.17703 | 32387 ft | 537 kts | 55° |
| 2026-04-20 04:51 | 27.38755 | 87.21027 | 32748 ft | 529 kts | 40° |
| 2026-04-20 04:51 | 27.41534 | 87.23667 | 33067 ft | 518 kts | 25° |
| 2026-04-20 04:51 | 27.44682 | 87.25527 | 33388 ft | 505 kts | 13° |
| 2026-04-20 04:52 | 27.47938 | 87.27030 | 33759 ft | 507 kts | 12° |
| 2026-04-20 04:52 | 27.51209 | 87.28528 | 34169 ft | 508 kts | 12° |
| 2026-04-20 04:52 | 27.54495 | 87.30027 | 34335 ft | 512 kts | 12° |
| 2026-04-20 04:52 | 27.57796 | 87.31536 | 34650 ft | 513 kts | 12° |
| 2026-04-20 04:53 | 27.61102 | 87.33054 | 34976 ft | 512 kts | 13° |
| 2026-04-20 04:53 | 27.64384 | 87.34571 | 35462 ft | 507 kts | 12° |
| 2026-04-20 04:53 | 27.67641 | 87.36080 | 35767 ft | 505 kts | 13° |
| 2026-04-20 04:53 | 27.70843 | 87.37562 | 35989 ft | 504 kts | 13° |
| 2026-04-20 04:54 | 27.74083 | 87.39062 | 36403 ft | 501 kts | 13° |
| 2026-04-20 04:54 | 27.77297 | 87.40549 | 36662 ft | 498 kts | 12° |
| 2026-04-20 04:54 | 27.80478 | 87.42111 | 36871 ft | 500 kts | 18° |
| 2026-04-20 04:54 | 27.83481 | 87.44150 | 37045 ft | 510 kts | 28° |
| 2026-04-20 04:55 | 27.86237 | 87.46745 | 37302 ft | 521 kts | 39° |
| 2026-04-20 04:55 | 27.88760 | 87.49719 | 37666 ft | 523 kts | 40° |
| 2026-04-20 04:55 | 27.91262 | 87.52701 | 38010 ft | 523 kts | 40° |
| 2026-04-20 04:55 | 27.93774 | 87.55689 | 38294 ft | 523 kts | 40° |
| 2026-04-20 04:56 | 27.96283 | 87.58666 | 38648 ft | 522 kts | 40° |
| 2026-04-20 04:56 | 27.98785 | 87.61630 | 38934 ft | 521 kts | 40° |
| 2026-04-20 04:56 | 28.01285 | 87.64591 | 39155 ft | 521 kts | 40° |
| 2026-04-20 04:57 | 28.06274 | 87.70508 | 39286 ft | 523 kts | 40° |
| 2026-04-20 04:57 | 28.11280 | 87.76461 | 39231 ft | 521 kts | 40° |
| 2026-04-20 04:58 | 28.16278 | 87.82415 | 39231 ft | 520 kts | 40° |
| 2026-04-20 04:58 | 28.21251 | 87.88354 | 39220 ft | 520 kts | 41° |
| 2026-04-20 04:59 | 28.26238 | 87.94312 | 39226 ft | 520 kts | 40° |
| 2026-04-20 04:59 | 28.31224 | 88.00270 | 39195 ft | 521 kts | 40° |
| 2026-04-20 05:00 | 28.36181 | 88.06212 | 39193 ft | 522 kts | 40° |
| 2026-04-20 05:00 | 28.41169 | 88.12197 | 39195 ft | 522 kts | 40° |
| 2026-04-20 05:01 | 28.46153 | 88.18191 | 39185 ft | 522 kts | 40° |
| 2026-04-20 05:01 | 28.51145 | 88.24210 | 39185 ft | 523 kts | 40° |
| 2026-04-20 05:02 | 28.56136 | 88.30224 | 39183 ft | 523 kts | 40° |
| 2026-04-20 05:02 | 28.61126 | 88.36244 | 39190 ft | 522 kts | 40° |
| 2026-04-20 05:03 | 28.66106 | 88.42258 | 39203 ft | 522 kts | 40° |
| 2026-04-20 05:03 | 28.71059 | 88.48260 | 39172 ft | 523 kts | 40° |
| 2026-04-20 05:04 | 28.76044 | 88.54312 | 39165 ft | 524 kts | 40° |
| 2026-04-20 05:04 | 28.81027 | 88.60375 | 39135 ft | 524 kts | 40° |
| 2026-04-20 05:05 | 28.86012 | 88.66443 | 39115 ft | 523 kts | 40° |
| 2026-04-20 05:05 | 28.90994 | 88.72519 | 39077 ft | 524 kts | 40° |
| 2026-04-20 05:06 | 28.95967 | 88.78594 | 39100 ft | 523 kts | 40° |
| 2026-04-20 05:06 | 29.00939 | 88.84666 | 39066 ft | 523 kts | 40° |
| 2026-04-20 05:07 | 29.05075 | 88.89720 | 39039 ft | 524 kts | 40° |
| 2026-04-20 05:07 | 29.10838 | 88.96791 | 39032 ft | 522 kts | 40° |
| 2026-04-20 05:08 | 29.15789 | 89.02863 | 39022 ft | 522 kts | 40° |
| 2026-04-20 05:08 | 29.19910 | 89.07926 | 39022 ft | 523 kts | 40° |
| 2026-04-20 05:09 | 29.24867 | 89.14031 | 39056 ft | 523 kts | 40° |
| 2026-04-20 05:09 | 29.29828 | 89.20219 | 39040 ft | 527 kts | 45° |
| 2026-04-20 05:09 | 29.31939 | 89.23678 | 39046 ft | 534 kts | 56° |
| 2026-04-20 05:10 | 29.33551 | 89.27469 | 39038 ft | 539 kts | 67° |
| 2026-04-20 05:10 | 29.34642 | 89.31595 | 39029 ft | 541 kts | 78° |
| 2026-04-20 05:10 | 29.35154 | 89.35863 | 39023 ft | 541 kts | 89° |
| 2026-04-20 05:11 | 29.35018 | 89.44474 | 39033 ft | 540 kts | 94° |
| 2026-04-20 05:11 | 29.34767 | 89.53097 | 39036 ft | 542 kts | 94° |
| 2026-04-20 05:12 | 29.34508 | 89.61732 | 39059 ft | 543 kts | 94° |
| 2026-04-20 05:12 | 29.34246 | 89.70389 | 39068 ft | 543 kts | 94° |
| 2026-04-20 05:13 | 29.33984 | 89.79051 | 39076 ft | 543 kts | 93° |
| 2026-04-20 05:13 | 29.33717 | 89.87641 | 39080 ft | 542 kts | 94° |
| 2026-04-20 05:14 | 29.33441 | 89.96290 | 39072 ft | 544 kts | 95° |
| 2026-04-20 05:14 | 29.33153 | 90.04968 | 39056 ft | 545 kts | 94° |
| 2026-04-20 05:15 | 29.32855 | 90.13655 | 39068 ft | 546 kts | 94° |
| 2026-04-20 05:15 | 29.31864 | 90.22196 | 39018 ft | 533 kts | 111° |
| 2026-04-20 05:16 | 29.29656 | 90.30302 | 38996 ft | 533 kts | 113° |
| 2026-04-20 05:16 | 29.28535 | 90.34380 | 38079 ft | 543 kts | 112° |
| 2026-04-20 05:16 | 29.27394 | 90.38536 | 36969 ft | 551 kts | 113° |
| 2026-04-20 05:16 | 29.26242 | 90.42739 | 36005 ft | 553 kts | 112° |
| 2026-04-20 05:17 | 29.25097 | 90.46930 | 35381 ft | 546 kts | 112° |
| 2026-04-20 05:17 | 29.23986 | 90.51016 | 34960 ft | 528 kts | 113° |
| 2026-04-20 05:17 | 29.22906 | 90.54984 | 34473 ft | 515 kts | 113° |
| 2026-04-20 05:17 | 29.21848 | 90.58849 | 34004 ft | 503 kts | 114° |
| 2026-04-20 05:18 | 29.20808 | 90.62630 | 33473 ft | 493 kts | 114° |
| 2026-04-20 05:18 | 29.19768 | 90.66368 | 33011 ft | 492 kts | 113° |
| 2026-04-20 05:18 | 29.18728 | 90.70089 | 32543 ft | 490 kts | 113° |
| 2026-04-20 05:18 | 29.17691 | 90.73796 | 32065 ft | 488 kts | 113° |
| 2026-04-20 05:19 | 29.16659 | 90.77488 | 31560 ft | 486 kts | 112° |
| 2026-04-20 05:19 | 29.15694 | 90.81182 | 31106 ft | 485 kts | 110° |
| 2026-04-20 05:19 | 29.14826 | 90.84847 | 30648 ft | 482 kts | 108° |
| 2026-04-20 05:19 | 29.14000 | 90.88575 | 30184 ft | 482 kts | 107° |
| 2026-04-20 05:20 | 29.13199 | 90.92289 | 29677 ft | 481 kts | 107° |
| 2026-04-20 05:20 | 29.12404 | 90.95962 | 29221 ft | 469 kts | 107° |
| 2026-04-20 05:20 | 29.11615 | 90.99536 | 28785 ft | 458 kts | 107° |
| 2026-04-20 05:20 | 29.10826 | 91.03022 | 28374 ft | 447 kts | 108° |
| 2026-04-20 05:21 | 29.10039 | 91.06428 | 27950 ft | 438 kts | 108° |
| 2026-04-20 05:21 | 29.09260 | 91.09759 | 27536 ft | 430 kts | 108° |
| 2026-04-20 05:21 | 29.08491 | 91.13023 | 27135 ft | 422 kts | 108° |
| 2026-04-20 05:21 | 29.07728 | 91.16254 | 26730 ft | 421 kts | 107° |
| 2026-04-20 05:22 | 29.06968 | 91.19484 | 26320 ft | 421 kts | 107° |
| 2026-04-20 05:22 | 29.06213 | 91.22710 | 25909 ft | 420 kts | 107° |
| 2026-04-20 05:22 | 29.05560 | 91.25956 | 25660 ft | 418 kts | 97° |
| 2026-04-20 05:22 | 29.05686 | 91.29233 | 25534 ft | 409 kts | 75° |
| 2026-04-20 05:23 | 29.06702 | 91.32180 | 25415 ft | 392 kts | 55° |
| 2026-04-20 05:23 | 29.08400 | 91.34502 | 25295 ft | 373 kts | 35° |
| 2026-04-20 05:23 | 29.10505 | 91.36127 | 25124 ft | 361 kts | 25° |
| 2026-04-20 05:23 | 29.12662 | 91.37578 | 24846 ft | 358 kts | 25° |
| 2026-04-20 05:24 | 29.14801 | 91.39016 | 24560 ft | 355 kts | 25° |
| 2026-04-20 05:24 | 29.16894 | 91.40425 | 24249 ft | 352 kts | 25° |
| 2026-04-20 05:24 | 29.18998 | 91.41843 | 23908 ft | 350 kts | 26° |
| 2026-04-20 05:24 | 29.21095 | 91.43258 | 23595 ft | 349 kts | 26° |
| 2026-04-20 05:25 | 29.23277 | 91.44358 | 23269 ft | 337 kts | 6° |
| 2026-04-20 05:25 | 29.25555 | 91.44431 | 22908 ft | 321 kts | 341° |
| 2026-04-20 05:25 | 29.27569 | 91.43520 | 22555 ft | 306 kts | 320° |
| 2026-04-20 05:25 | 29.29101 | 91.41900 | 21981 ft | 301 kts | 301° |
| 2026-04-20 05:26 | 29.30069 | 91.39756 | 21163 ft | 307 kts | 290° |
| 2026-04-20 05:26 | 29.30717 | 91.37415 | 20359 ft | 310 kts | 275° |
| 2026-04-20 05:26 | 29.30754 | 91.34941 | 19578 ft | 313 kts | 268° |
| 2026-04-20 05:26 | 29.30713 | 91.32441 | 18806 ft | 315 kts | 268° |
| 2026-04-20 05:27 | 29.30674 | 91.29928 | 18035 ft | 316 kts | 268° |
| 2026-04-20 05:27 | 29.30638 | 91.27404 | 17285 ft | 315 kts | 268° |
| 2026-04-20 05:27 | 29.30602 | 91.24937 | 16735 ft | 308 kts | 268° |
| 2026-04-20 05:27 | 29.30567 | 91.22504 | 16235 ft | 301 kts | 268° |
| 2026-04-20 05:28 | 29.30538 | 91.20142 | 15837 ft | 292 kts | 268° |
| 2026-04-20 05:28 | 29.30510 | 91.17850 | 15465 ft | 284 kts | 268° |
| 2026-04-20 05:28 | 29.30482 | 91.15620 | 15125 ft | 276 kts | 268° |
| 2026-04-20 05:28 | 29.30455 | 91.13453 | 14787 ft | 269 kts | 268° |
| 2026-04-20 05:29 | 29.30428 | 91.11367 | 14476 ft | 263 kts | 267° |
| 2026-04-20 05:29 | 29.30400 | 91.09285 | 14154 ft | 260 kts | 267° |
| 2026-04-20 05:29 | 29.30372 | 91.07201 | 13852 ft | 261 kts | 268° |
| 2026-04-20 05:29 | 29.30345 | 91.05156 | 13611 ft | 252 kts | 268° |
| 2026-04-20 05:30 | 29.30319 | 91.03214 | 13420 ft | 236 kts | 268° |
| 2026-04-20 05:30 | 29.30294 | 91.01402 | 13177 ft | 217 kts | 268° |
| 2026-04-20 05:30 | 29.30272 | 90.99778 | 12925 ft | 192 kts | 268° |
| 2026-04-20 05:30 | 29.30265 | 90.98325 | 12651 ft | 176 kts | 269° |
| 2026-04-20 05:31 | 29.30250 | 90.96943 | 12359 ft | 170 kts | 267° |
| 2026-04-20 05:31 | 29.30221 | 90.95610 | 12055 ft | 166 kts | 266° |
| 2026-04-20 05:31 | 29.30206 | 90.94292 | 11805 ft | 166 kts | 266° |
| 2026-04-20 05:31 | 29.30185 | 90.92971 | 11595 ft | 166 kts | 265° |
| 2026-04-20 05:32 | 29.30155 | 90.91673 | 11475 ft | 152 kts | 268° |
| 2026-04-20 05:32 | 29.30140 | 90.90653 | 11491 ft | 103 kts | 269° |
| 2026-04-20 05:32 | 29.30133 | 90.90055 | 11490 ft | 42 kts | 269° |
| 2026-04-20 05:32 | 29.30113 | 90.89818 | 11475 ft | 17 kts | 249° |
| 2026-04-20 05:33 | 29.30061 | 90.89695 | 11483 ft | 17 kts | 241° |
| 2026-04-20 05:33 | 29.30002 | 90.89571 | 11484 ft | 18 kts | 242° |
| 2026-04-20 05:33 | 29.29969 | 90.89429 | 11488 ft | 19 kts | 268° |
| 2026-04-20 05:33 | 29.29965 | 90.89278 | 11488 ft | 19 kts | 269° |
| 2026-04-20 05:34 | 29.29930 | 90.89196 | 11487 ft | 10 kts | 191° |
| 2026-04-20 05:34 | 29.29850 | 90.89195 | 11474 ft | 13 kts | 179° |
| 2026-04-20 05:34 | 29.29639 | 90.89195 | 11476 ft | 16 kts | 179° |
| 2026-04-20 05:35 | 29.29534 | 90.89203 | 11481 ft | 11 kts | 160° |
| 2026-04-20 05:35 | 29.29515 | 90.89282 | 11485 ft | 12 kts | 88° |
| 2026-04-20 05:35 | 29.29510 | 90.89360 | 11485 ft | 7 kts | 123° |
| 2026-04-20 05:35 | 29.29460 | 90.89371 | 11480 ft | 8 kts | 180° |
| 2026-04-20 05:36 | 29.29400 | 90.89370 | 11480 ft | 10 kts | 180° |
| 2026-04-20 05:36 | 29.29382 | 90.89370 | 11481 ft | 2 kts | 180° |
| 2026-04-20 05:36 | 29.29380 | 90.89370 | 11481 ft | 0 kts | 180° |